Weather at Dublin Airport

Public forecast

Using degrees Celsius for public forecast. Weather courtesy of forecast.io.

Current aviation weather report (METAR) for Dublin Airport

Retrieved 2021/07/29 06:00 UTC (20 minutes ago):

EIDW 290600Z 25013KT 220V280 9999 FEW009 11/09 Q1007 NOSIG

Aviation forecast (TAF) for Dublin Airport

Retrieved 2021/07/29 06:11 UTC (9 minutes ago):

TAF EIDW 290500Z 2906/3006 26013KT 9999 FEW016 SCT040 PROB40 TEMPO 2907/2913 26016G27KT BECMG 2913/2915 29011KT BECMG 2917/2919 29006KT PROB30 TEMPO 3004/3006 4000 BR